Terminal Aerodrome Forecast
Issued by NWS

Home | Current Version | Previous Version | Text Only | Print | Product List | Glossary On
Versions: 1 2 3 4 5 6 7 8 9 10 11 12 13 14 15 16 17 18 19 20 21 22 23 24
000
FTUS43 KGLD 231700
TAFMCK
TAF
KMCK 231732Z 2318/2418 VRB04KT P6SM VCSH SCT060 BKN150
     FM231930 12008KT P6SM FEW200
     FM241000 14006KT 6SM BR FEW007
     FM241600 18013G23KT P6SM FEW200=

USA.gov is the U.S. government's official web portal to all federal, state and local government web resources and services.